VVDN/DAD METAR and TAF weather

Enter ICAO airport designator
Station Type Date Time Source
VVDN METAR 2019/12/16 06:00 UTC NOAA

VVDN 160600Z 08005KT 050V120 8000 SCT013 SCT060 29/22 Q1014 NOSIG


Station Type Date Time Source
VVDN Decoded METAR 2019/12/16 06:00 UTC NOAA

Da Nang, Vietnam (VVDN) 16-02N 108-11E 7M
Dec 16, 2019 - 01:00 AM EST / 2019.12.16 0600 UTC
Wind: from the E (080 degrees) at 6 MPH (5 KT) (direction variable):0
Visibility: 4 mile(s):0
Sky conditions: partly cloudy
Temperature: 84 F (29 C)
Dew Point: 71 F (22 C)
Relative Humidity: 65%
Pressure (altimeter): 29.94 in. Hg (1014 hPa)
ob: VVDN 160600Z 08005KT 050V120 8000 SCT013 SCT060 29/22 Q1014 NOSIG
cycle: 6

Station Type Date Time Source
VVDN TAF 2019/12/16 06:36 UTC NOAA

TAF VVDN 160500Z 1606/1706 14006KT 8000 SCT013 SCT060
BECMG 1620/1621 4500 BR
BECMG 1700/1701 8000 NSW

Example: see airport list